Time;durP1;ratioP1;P1;durP2;ratioP2;P2;SDS_P1;SDS_P2;PMS_P1;PMS_P2;Temp;Humidity;BMP_temperature;BMP_pressure;BME280_temperature;BME280_humidity;BME280_pressure;Samples;Min_cycle;Max_cycle;Signal;HPM_P1;HPM_P2
2023/01/14 00:02:03;;;;;;;1.00;1.00;;;17.50;69.60;;;;;;5073878;28;43551;-72
2023/01/14 00:04:33;;;;;;;1.00;1.00;;;17.50;69.70;;;;;;5071202;28;44782;-71
2023/01/14 00:07:01;;;;;;;1.00;1.00;;;17.50;70.60;;;;;;5094930;27;43394;-71
2023/01/14 00:09:30;;;;;;;1.00;1.00;;;17.50;69.90;;;;;;5092523;27;43399;-70
2023/01/14 00:11:58;;;;;;;0.90;0.90;;;17.50;69.80;;;;;;5092245;27;43549;-70
2023/01/14 00:14:30;;;;;;;0.83;0.83;;;17.50;69.70;;;;;;5071339;28;45885;-72
2023/01/14 00:16:58;;;;;;;0.90;0.90;;;17.50;69.80;;;;;;5093584;27;44738;-73
2023/01/14 00:19:26;;;;;;;1.07;1.07;;;17.50;69.80;;;;;;5091825;27;43944;-70
2023/01/14 00:21:55;;;;;;;1.17;1.17;;;17.50;69.90;;;;;;5092875;27;43450;-72
2023/01/14 00:24:23;;;;;;;0.83;0.83;;;17.40;70.70;;;;;;5088240;27;45132;-72
2023/01/14 00:26:52;;;;;;;1.10;1.00;;;17.50;70.00;;;;;;5093020;27;43510;-70
2023/01/14 00:29:21;;;;;;;1.03;1.03;;;17.60;69.60;;;;;;5068715;27;43429;-71
2023/01/14 00:31:49;;;;;;;0.97;0.97;;;17.70;69.10;;;;;;5094791;27;43448;-71
2023/01/14 00:34:20;;;;;;;0.90;0.90;;;17.80;68.90;;;;;;5097717;27;43837;-71
2023/01/14 00:36:51;;;;;;;0.90;0.90;;;17.80;68.80;;;;;;5073647;27;43752;-70
2023/01/14 00:39:22;;;;;;;0.90;0.90;;;17.70;69.00;;;;;;5072367;27;43455;-72
2023/01/14 00:41:50;;;;;;;1.00;1.00;;;17.70;69.00;;;;;;5095393;27;43423;-71
2023/01/14 00:44:19;;;;;;;1.07;1.07;;;17.70;69.00;;;;;;5091885;27;43905;-71
2023/01/14 00:46:47;;;;;;;1.00;1.00;;;17.70;69.10;;;;;;5091730;27;43436;-73
2023/01/14 00:49:17;;;;;;;1.20;1.20;;;17.60;69.10;;;;;;5092120;27;43438;-71
2023/01/14 00:51:46;;;;;;;0.77;0.77;;;17.60;69.30;;;;;;5097348;27;43452;-72
2023/01/14 00:54:14;;;;;;;1.03;1.03;;;17.60;69.50;;;;;;5084447;27;43773;-72
2023/01/14 00:56:43;;;;;;;0.90;0.90;;;17.50;69.60;;;;;;5092849;27;43963;-72
2023/01/14 00:59:16;;;;;;;0.80;0.80;;;17.50;69.50;;;;;;5087689;27;43431;-71
2023/01/14 01:01:44;;;;;;;0.90;0.90;;;17.50;69.60;;;;;;5090028;27;43783;-72
2023/01/14 01:04:12;;;;;;;1.00;1.00;;;17.50;69.60;;;;;;5095546;27;43792;-71
2023/01/14 01:06:41;;;;;;;1.00;1.00;;;17.50;69.60;;;;;;5091711;27;43536;-70
2023/01/14 01:09:09;;;;;;;0.83;0.83;;;17.50;69.70;;;;;;5068245;27;43440;-72
2023/01/14 01:11:39;;;;;;;0.90;0.90;;;17.50;69.90;;;;;;5073175;27;43476;-71
2023/01/14 01:14:08;;;;;;;1.10;1.10;;;17.50;69.70;;;;;;5092645;27;43947;-71
2023/01/14 01:16:37;;;;;;;0.83;0.83;;;17.50;69.70;;;;;;5087038;27;44162;-73
2023/01/14 01:19:06;;;;;;;1.03;1.03;;;17.50;69.70;;;;;;5078576;27;43445;-70
2023/01/14 01:21:34;;;;;;;0.90;0.90;;;17.50;70.50;;;;;;5071850;27;44021;-72
2023/01/14 01:24:02;;;;;;;0.90;0.90;;;17.40;69.80;;;;;;5093285;27;43594;-71
2023/01/14 01:26:30;;;;;;;0.90;0.90;;;17.50;70.00;;;;;;5093078;27;43450;-70
2023/01/14 01:28:58;;;;;;;0.87;0.87;;;17.50;69.80;;;;;;5071090;27;43965;-70
2023/01/14 01:31:28;;;;;;;0.80;0.80;;;17.70;69.50;;;;;;5083622;27;43973;-71
2023/01/14 01:33:56;;;;;;;0.83;0.83;;;17.70;68.90;;;;;;5073487;27;45863;-72
2023/01/14 01:36:24;;;;;;;0.90;0.90;;;17.70;68.80;;;;;;5069181;28;45342;-73
2023/01/14 01:38:52;;;;;;;1.07;1.07;;;17.70;69.00;;;;;;5069206;27;43468;-72
2023/01/14 01:41:22;;;;;;;1.00;1.00;;;17.70;69.20;;;;;;5092293;27;43896;-72
2023/01/14 01:43:57;;;;;;;0.90;0.90;;;17.70;69.20;;;;;;5072792;27;45794;-72
2023/01/14 01:46:27;;;;;;;0.90;0.90;;;17.60;69.00;;;;;;5074360;27;43805;-71
2023/01/14 01:48:55;;;;;;;1.00;1.00;;;17.60;69.20;;;;;;5077962;28;43980;-71
2023/01/14 01:51:24;;;;;;;0.90;0.90;;;17.60;69.30;;;;;;5092591;27;43392;-72
2023/01/14 01:53:54;;;;;;;0.90;0.90;;;17.60;69.50;;;;;;5093558;27;43620;-71
2023/01/14 01:56:24;;;;;;;0.90;0.90;;;17.50;69.70;;;;;;5100815;27;43452;-71
2023/01/14 01:58:52;;;;;;;1.00;1.00;;;17.50;69.60;;;;;;5075409;27;43435;-72
2023/01/14 02:01:19;;;;;;;0.60;0.60;;;17.50;69.60;;;;;;5091778;27;43526;-72
2023/01/14 02:03:49;;;;;;;1.00;1.00;;;17.50;69.60;;;;;;5095323;27;43599;-71
2023/01/14 02:06:17;;;;;;;0.97;0.97;;;17.50;69.70;;;;;;5095687;27;43476;-71
2023/01/14 02:08:48;;;;;;;0.83;0.83;;;17.50;69.70;;;;;;5073564;28;43395;-71
2023/01/14 02:11:24;;;;;;;1.00;1.00;;;17.40;69.80;;;;;;5083895;27;44063;-72
2023/01/14 02:13:58;;;;;;;1.00;1.00;;;17.40;69.70;;;;;;5073106;27;45340;-70
2023/01/14 02:16:35;;;;;;;0.83;0.83;;;17.50;69.80;;;;;;5080234;27;44672;-72
2023/01/14 02:19:14;;;;;;;0.93;0.93;;;17.50;69.80;;;;;;5075935;27;43504;-71
2023/01/14 02:21:45;;;;;;;0.90;0.90;;;17.40;69.70;;;;;;5073710;27;43559;-71
2023/01/14 02:24:29;;;;;;;0.97;0.97;;;17.50;70.60;;;;;;5072067;28;46072;-71
2023/01/14 02:27:15;;;;;;;1.10;1.10;;;17.40;70.00;;;;;;5092676;27;43960;-70
2023/01/14 02:29:58;;;;;;;0.93;0.93;;;17.50;69.80;;;;;;5077865;27;43426;-71
2023/01/14 02:32:36;;;;;;;0.90;0.90;;;17.70;69.40;;;;;;5072906;28;43443;-71
2023/01/14 02:35:08;;;;;;;0.80;0.80;;;17.80;69.00;;;;;;5074868;27;44072;-70
2023/01/14 02:37:38;;;;;;;1.00;1.00;;;17.80;68.80;;;;;;5075245;27;45056;-72
2023/01/14 02:40:09;;;;;;;0.73;0.73;;;17.70;68.90;;;;;;5067754;27;43521;-71
2023/01/14 02:45:28;;;;;;;0.90;0.90;;;17.70;68.90;;;;;;5076269;27;44996;-71
2023/01/14 02:47:57;;;;;;;1.10;1.10;;;17.70;69.10;;;;;;5076078;27;43504;-70
2023/01/14 02:50:26;;;;;;;1.13;1.13;;;17.60;69.10;;;;;;5076735;28;43534;-70
2023/01/14 02:52:54;;;;;;;0.87;0.87;;;17.60;69.30;;;;;;5074747;28;43455;-70
2023/01/14 02:55:31;;;;;;;1.00;1.00;;;17.50;69.40;;;;;;5077900;27;43918;-72
2023/01/14 02:58:35;;;;;;;1.20;1.20;;;17.50;69.60;;;;;;5072231;27;43576;-72
2023/01/14 03:01:12;;;;;;;0.80;0.80;;;17.50;69.50;;;;;;5037093;27;43470;-71
2023/01/14 03:03:47;;;;;;;1.20;1.20;;;17.50;69.60;;;;;;5097493;27;43491;-72
2023/01/14 03:06:22;;;;;;;0.80;0.80;;;17.50;69.60;;;;;;5073219;28;45973;-71
2023/01/14 03:08:54;;;;;;;0.70;0.70;;;17.50;69.70;;;;;;5069394;27;45044;-70
2023/01/14 03:11:25;;;;;;;0.87;0.87;;;17.40;69.80;;;;;;5067604;27;43555;-73
2023/01/14 03:13:57;;;;;;;0.83;0.83;;;17.50;69.90;;;;;;5074958;27;43736;-71
2023/01/14 03:16:29;;;;;;;0.90;0.90;;;17.60;69.50;;;;;;5074519;27;44046;-70
2023/01/14 03:19:01;;;;;;;0.97;0.97;;;17.60;69.10;;;;;;5070157;27;44107;-72
2023/01/14 03:21:31;;;;;;;0.80;0.80;;;17.60;69.20;;;;;;5078490;27;43405;-73
2023/01/14 03:24:04;;;;;;;0.90;0.90;;;17.60;69.30;;;;;;5093002;27;43577;-72
2023/01/14 03:26:34;;;;;;;0.90;0.90;;;17.50;69.40;;;;;;5076011;27;44879;-71
2023/01/14 03:29:06;;;;;;;0.90;0.90;;;17.50;69.50;;;;;;5072696;27;44521;-71
2023/01/14 03:31:35;;;;;;;0.90;0.90;;;17.50;69.30;;;;;;5072168;28;43534;-70
2023/01/14 03:34:06;;;;;;;1.03;1.03;;;17.50;69.40;;;;;;5074193;27;43536;-72
2023/01/14 03:36:34;;;;;;;0.87;0.87;;;17.50;69.50;;;;;;5097487;27;43834;-70
2023/01/14 03:39:04;;;;;;;0.80;0.80;;;17.50;69.70;;;;;;5072790;27;44583;-71
2023/01/14 03:44:22;;;;;;;0.70;0.70;;;17.40;69.80;;;;;;5093797;27;43470;-72
2023/01/14 03:46:51;;;;;;;0.97;0.97;;;17.50;69.60;;;;;;5091568;27;43572;-71
2023/01/14 03:49:19;;;;;;;0.90;0.90;;;17.60;69.20;;;;;;5088711;27;44018;-70
2023/01/14 03:51:48;;;;;;;1.00;1.00;;;17.60;69.00;;;;;;5095035;27;43461;-71
2023/01/14 03:54:21;;;;;;;0.93;0.93;;;17.60;69.10;;;;;;5089958;27;44622;-72
2023/01/14 03:56:53;;;;;;;1.07;1.07;;;17.60;70.00;;;;;;5067991;27;45636;-71
2023/01/14 03:59:23;;;;;;;0.90;0.90;;;17.50;69.40;;;;;;5088190;27;43443;-71
2023/01/14 04:01:53;;;;;;;1.00;1.00;;;17.50;69.30;;;;;;5091930;27;43476;-71
2023/01/14 04:04:21;;;;;;;0.80;0.80;;;17.50;69.30;;;;;;5073620;27;43424;-73
2023/01/14 04:06:49;;;;;;;1.00;1.00;;;17.50;69.40;;;;;;5091620;27;43870;-71
2023/01/14 04:09:17;;;;;;;0.90;0.90;;;17.50;69.50;;;;;;5097208;27;43750;-71
2023/01/14 04:11:45;;;;;;;1.10;1.10;;;17.50;69.60;;;;;;5087181;27;43455;-72
2023/01/14 04:17:00;;;;;;;1.10;1.10;;;17.50;69.80;;;;;;5094357;27;43838;-71
2023/01/14 04:19:28;;;;;;;0.93;0.93;;;17.60;69.40;;;;;;5089651;27;43511;-71
2023/01/14 04:21:56;;;;;;;1.10;1.10;;;17.60;69.10;;;;;;5098748;27;43995;-72
2023/01/14 04:24:24;;;;;;;1.10;1.10;;;17.60;69.30;;;;;;5087932;27;43383;-71
2023/01/14 04:26:52;;;;;;;1.10;1.10;;;17.60;69.30;;;;;;5093584;27;43966;-70
2023/01/14 04:29:20;;;;;;;1.10;1.10;;;17.50;69.50;;;;;;5090815;27;43481;-71
2023/01/14 04:31:48;;;;;;;1.20;1.20;;;17.50;69.50;;;;;;5077138;27;43428;-71
2023/01/14 04:34:17;;;;;;;0.80;0.80;;;17.50;69.40;;;;;;5090434;27;43522;-72
2023/01/14 04:36:45;;;;;;;0.90;0.90;;;17.50;69.50;;;;;;5089890;27;43935;-71
2023/01/14 04:39:13;;;;;;;0.90;0.90;;;17.50;69.60;;;;;;5092483;27;43469;-71
2023/01/14 04:44:26;;;;;;;0.80;0.80;;;17.40;69.80;;;;;;5090136;27;43493;-71
2023/01/14 04:46:54;;;;;;;1.10;1.10;;;17.40;69.70;;;;;;5070550;27;46461;-70
2023/01/14 04:49:23;;;;;;;0.90;0.90;;;17.40;69.70;;;;;;5093580;27;43494;-72
2023/01/14 04:51:51;;;;;;;1.00;1.00;;;17.40;69.70;;;;;;5073913;27;43426;-72
2023/01/14 04:54:19;;;;;;;1.00;1.00;;;17.40;69.70;;;;;;5090146;27;43384;-71
2023/01/14 04:56:47;;;;;;;0.97;0.97;;;17.40;69.80;;;;;;5071694;27;44599;-72
2023/01/14 04:59:15;;;;;;;0.97;0.97;;;17.40;70.00;;;;;;5084577;27;43423;-71
2023/01/14 05:01:43;;;;;;;1.10;1.10;;;17.40;69.90;;;;;;5094463;27;43399;-72
2023/01/14 05:04:11;;;;;;;0.97;0.90;;;17.50;69.60;;;;;;5071794;27;43621;-71
2023/01/14 05:06:40;;;;;;;1.00;1.00;;;17.70;69.30;;;;;;5090856;27;44112;-71
2023/01/14 05:09:08;;;;;;;1.10;1.10;;;17.70;68.80;;;;;;5096778;27;43470;-72
2023/01/14 05:11:36;;;;;;;0.90;0.90;;;17.70;68.70;;;;;;5088491;27;43440;-70
2023/01/14 05:14:04;;;;;;;1.13;1.13;;;17.70;68.90;;;;;;5091965;27;43480;-70
2023/01/14 05:16:31;;;;;;;0.90;0.90;;;17.70;69.10;;;;;;5091108;27;43756;-71
2023/01/14 05:18:59;;;;;;;1.00;1.00;;;17.70;68.90;;;;;;5092937;27;43443;-73
2023/01/14 05:21:27;;;;;;;0.80;0.80;;;17.60;68.90;;;;;;5090943;27;43447;-70
2023/01/14 05:23:56;;;;;;;0.90;0.90;;;17.60;69.00;;;;;;5095120;27;43453;-70
2023/01/14 05:26:24;;;;;;;1.00;1.00;;;17.60;69.20;;;;;;5095870;27;44187;-72
2023/01/14 05:28:52;;;;;;;0.90;0.90;;;17.50;69.30;;;;;;5096207;27;43465;-70
2023/01/14 05:31:20;;;;;;;1.00;1.00;;;17.50;69.60;;;;;;5100884;27;43450;-71
2023/01/14 05:33:48;;;;;;;1.17;0.90;;;17.50;69.40;;;;;;5097187;27;43397;-71
2023/01/14 05:36:16;;;;;;;0.90;0.90;;;17.50;69.40;;;;;;5074605;27;45495;-72
2023/01/14 05:38:44;;;;;;;1.20;1.20;;;17.50;69.50;;;;;;5097187;27;43908;-71
2023/01/14 05:41:14;;;;;;;0.90;0.90;;;17.50;69.60;;;;;;5095414;27;43422;-71
2023/01/14 05:46:27;;;;;;;0.90;0.90;;;17.40;69.80;;;;;;5091028;27;44042;-71
2023/01/14 05:48:57;;;;;;;1.27;1.27;;;17.50;69.60;;;;;;5094335;27;43390;-70
2023/01/14 05:51:25;;;;;;;0.90;0.90;;;17.60;69.30;;;;;;5097361;27;43509;-71
2023/01/14 05:53:53;;;;;;;1.00;1.00;;;17.60;69.10;;;;;;5092639;27;44051;-72
2023/01/14 05:56:22;;;;;;;1.00;1.00;;;17.60;69.10;;;;;;5091715;27;44317;-72
2023/01/14 05:58:51;;;;;;;1.10;1.10;;;17.60;69.20;;;;;;5094660;27;43498;-71
2023/01/14 06:06:59;;;;;;;1.00;1.00;;;17.50;69.30;;;;;;5073205;27;45940;-71
2023/01/14 06:09:26;;;;;;;0.87;0.87;;;17.50;69.40;;;;;;5093865;27;43949;-70
2023/01/14 06:12:02;;;;;;;0.80;0.80;;;17.50;69.60;;;;;;5077617;27;43561;-72
2023/01/14 06:14:31;;;;;;;1.03;1.03;;;17.50;69.60;;;;;;5092495;27;43468;-71
2023/01/14 06:17:04;;;;;;;0.90;0.90;;;17.40;69.80;;;;;;5095835;27;44003;-71
2023/01/14 06:19:32;;;;;;;1.07;1.00;;;17.50;69.70;;;;;;5092089;27;43483;-71
2023/01/14 06:22:00;;;;;;;0.90;0.90;;;17.60;69.30;;;;;;5099888;27;43430;-70
2023/01/14 06:24:28;;;;;;;1.00;1.00;;;17.60;69.00;;;;;;5089428;27;43478;-73
2023/01/14 06:26:57;;;;;;;1.00;1.00;;;17.60;69.10;;;;;;5097090;27;44851;-72
2023/01/14 06:29:25;;;;;;;1.03;1.03;;;17.50;69.20;;;;;;5088636;27;43530;-72
2023/01/14 06:31:53;;;;;;;1.00;1.00;;;17.50;69.40;;;;;;5071785;27;43499;-70
2023/01/14 06:34:23;;;;;;;1.00;1.00;;;17.50;69.40;;;;;;5083197;27;43363;-71
2023/01/14 06:36:51;;;;;;;0.80;0.80;;;17.50;69.30;;;;;;5071810;27;45624;-73
2023/01/14 06:39:20;;;;;;;1.10;1.10;;;17.50;69.40;;;;;;5096940;27;43407;-70
2023/01/14 06:41:48;;;;;;;0.83;0.83;;;17.50;69.50;;;;;;5088593;27;43398;-71
2023/01/14 06:44:18;;;;;;;0.93;0.93;;;17.40;69.50;;;;;;5095839;27;44007;-72
2023/01/14 06:46:45;;;;;;;1.00;1.00;;;17.40;69.70;;;;;;5089295;27;43949;-71
2023/01/14 06:49:13;;;;;;;0.90;0.90;;;17.50;69.80;;;;;;5074822;27;44764;-72
2023/01/14 06:51:42;;;;;;;0.93;0.93;;;17.50;69.40;;;;;;5078593;27;43811;-71
2023/01/14 06:54:12;;;;;;;1.27;1.27;;;17.60;69.10;;;;;;5094643;27;44366;-70
2023/01/14 06:56:40;;;;;;;0.80;0.80;;;17.60;69.00;;;;;;5090755;27;44817;-71
2023/01/14 06:59:08;;;;;;;1.60;0.80;;;17.60;69.10;;;;;;5092185;27;43427;-72
2023/01/14 07:01:38;;;;;;;0.80;0.80;;;17.60;69.20;;;;;;5093439;27;43454;-71
2023/01/14 07:04:06;;;;;;;0.80;0.80;;;17.60;69.30;;;;;;5091523;27;43600;-72
2023/01/14 07:06:33;;;;;;;0.90;0.90;;;17.60;69.20;;;;;;5090273;27;43620;-71
2023/01/14 07:09:01;;;;;;;1.20;1.20;;;17.50;69.20;;;;;;5096838;27;43549;-71
2023/01/14 07:11:29;;;;;;;0.80;0.80;;;17.50;69.30;;;;;;5088745;27;43382;-71
2023/01/14 07:13:57;;;;;;;1.07;1.07;;;17.50;69.40;;;;;;5091056;27;43617;-71
2023/01/14 07:16:25;;;;;;;0.80;0.80;;;17.50;69.50;;;;;;5104178;27;43605;-72
2023/01/14 07:18:54;;;;;;;1.00;1.00;;;17.50;69.70;;;;;;5092214;27;43457;-72
2023/01/14 07:21:22;;;;;;;0.80;0.80;;;17.40;69.50;;;;;;5087660;27;43444;-71
2023/01/14 07:23:50;;;;;;;0.90;0.90;;;17.50;69.60;;;;;;5077635;27;43511;-70
2023/01/14 07:26:19;;;;;;;0.80;0.80;;;17.50;69.60;;;;;;5093342;27;43720;-72
2023/01/14 07:28:46;;;;;;;0.90;0.90;;;17.40;69.60;;;;;;5096400;27;43972;-71
2023/01/14 07:31:15;;;;;;;0.87;0.87;;;17.40;69.70;;;;;;5073903;27;43461;-71
2023/01/14 07:33:43;;;;;;;1.00;1.00;;;17.40;69.90;;;;;;5090937;27;43434;-71
2023/01/14 07:36:12;;;;;;;0.80;0.80;;;17.50;69.80;;;;;;5090738;27;43618;-72
2023/01/14 07:38:40;;;;;;;0.80;0.80;;;17.60;69.40;;;;;;5090678;27;43503;-71
2023/01/14 07:41:09;;;;;;;0.97;0.97;;;17.70;69.00;;;;;;5096135;27;43437;-73
2023/01/14 07:43:39;;;;;;;0.93;0.93;;;17.70;68.90;;;;;;5088281;27;43443;-73
2023/01/14 07:46:09;;;;;;;0.80;0.80;;;17.60;69.00;;;;;;5087166;27;43911;-71
2023/01/14 07:48:37;;;;;;;0.90;0.90;;;17.60;69.20;;;;;;5074503;27;44938;-71
2023/01/14 07:51:05;;;;;;;0.90;0.90;;;17.60;69.10;;;;;;5069084;27;43428;-72
2023/01/14 07:53:34;;;;;;;1.00;1.00;;;17.60;69.20;;;;;;5074424;27;44007;-70
2023/01/14 07:56:03;;;;;;;0.80;0.80;;;17.50;69.10;;;;;;5093150;27;43984;-70
2023/01/14 07:58:31;;;;;;;0.90;0.90;;;17.50;69.30;;;;;;5090628;27;43875;-70
2023/01/14 08:00:59;;;;;;;1.13;1.13;;;17.50;69.40;;;;;;5093511;27;43482;-72
2023/01/14 08:03:27;;;;;;;0.90;0.90;;;17.40;69.50;;;;;;5090259;27;43437;-72
2023/01/14 08:05:55;;;;;;;1.00;1.00;;;17.40;69.50;;;;;;5091548;27;43943;-72
2023/01/14 08:08:23;;;;;;;0.90;0.90;;;17.40;69.50;;;;;;5071199;27;45321;-70
2023/01/14 08:10:52;;;;;;;0.90;0.90;;;17.40;69.50;;;;;;5094771;27;43406;-70
2023/01/14 08:13:20;;;;;;;0.90;0.90;;;17.40;69.50;;;;;;5093725;27;43809;-73
2023/01/14 08:15:54;;;;;;;0.93;0.93;;;17.40;69.60;;;;;;5093623;27;43587;-70
2023/01/14 08:18:22;;;;;;;0.80;0.80;;;17.40;69.80;;;;;;5081563;27;44793;-70
2023/01/14 08:20:57;;;;;;;1.00;1.00;;;17.40;69.80;;;;;;5081610;27;43502;-72
2023/01/14 08:23:25;;;;;;;1.00;1.00;;;17.50;69.50;;;;;;5078453;27;44062;-70
2023/01/14 08:25:54;;;;;;;1.00;1.00;;;17.60;69.10;;;;;;5105140;27;43611;-72
2023/01/14 08:28:22;;;;;;;0.80;0.80;;;17.70;68.80;;;;;;5070224;28;44411;-70
2023/01/14 08:30:50;;;;;;;0.70;0.70;;;17.60;68.80;;;;;;5092318;27;43518;-70
2023/01/14 08:33:18;;;;;;;0.90;0.90;;;17.60;69.00;;;;;;5098401;27;43442;-69
2023/01/14 08:35:46;;;;;;;0.80;0.80;;;17.60;69.20;;;;;;5090577;27;43828;-73
2023/01/14 08:38:13;;;;;;;0.90;0.90;;;17.60;69.00;;;;;;5070029;27;44337;-72
2023/01/14 08:40:41;;;;;;;0.90;0.90;;;17.60;69.20;;;;;;5092026;27;44068;-71
2023/01/14 08:43:11;;;;;;;0.97;0.97;;;17.50;69.20;;;;;;5088856;27;44861;-71
2023/01/14 08:45:39;;;;;;;1.00;1.00;;;17.50;69.30;;;;;;5071560;27;44849;-71
2023/01/14 08:48:06;;;;;;;1.00;1.00;;;17.40;69.50;;;;;;5089629;27;43506;-72
2023/01/14 08:50:34;;;;;;;0.63;0.63;;;17.40;70.40;;;;;;5068435;28;43451;-71
2023/01/14 08:53:02;;;;;;;2.63;0.93;;;17.50;69.60;;;;;;5080726;27;43645;-71
2023/01/14 08:55:30;;;;;;;2.27;0.83;;;17.40;69.50;;;;;;5082255;27;43899;-71
2023/01/14 08:57:58;;;;;;;2.90;1.07;;;17.40;69.50;;;;;;5069805;28;44873;-71
2023/01/14 09:00:28;;;;;;;2.57;1.40;;;17.40;69.50;;;;;;5072772;27;44055;-71
2023/01/14 09:02:55;;;;;;;3.70;1.40;;;17.40;69.60;;;;;;5082686;27;43630;-72
2023/01/14 09:05:23;;;;;;;6.07;1.60;;;17.40;69.40;;;;;;5087296;27;44087;-71
2023/01/14 09:18:56;;;;;;;5.40;1.90;;;17.40;70.00;;;;;;5086582;27;43549;-70
2023/01/14 09:21:24;;;;;;;10.63;1.93;;;17.40;69.60;;;;;;5085589;27;43510;-71
2023/01/14 09:23:52;;;;;;;5.10;1.63;;;17.40;69.20;;;;;;5087073;27;43621;-72
2023/01/14 09:26:20;;;;;;;5.60;1.53;;;17.50;68.90;;;;;;5085568;27;43986;-72
2023/01/14 09:28:48;;;;;;;17.23;2.33;;;17.60;68.50;;;;;;5084967;27;44091;-72
2023/01/14 09:31:17;;;;;;;6.13;1.93;;;17.60;68.80;;;;;;5083937;27;43438;-71
2023/01/14 09:33:45;;;;;;;7.63;2.13;;;17.60;69.00;;;;;;5075515;28;43522;-71
2023/01/14 09:36:13;;;;;;;4.97;2.10;;;17.60;68.80;;;;;;5084752;27;44444;-72
2023/01/14 09:38:41;;;;;;;4.83;1.70;;;17.50;68.80;;;;;;5088230;27;43461;-72
2023/01/14 09:41:27;;;;;;;6.07;2.20;;;17.50;69.10;;;;;;5074363;27;43804;-71
2023/01/14 09:43:55;;;;;;;7.67;1.70;;;17.50;69.30;;;;;;5075397;27;44007;-72
2023/01/14 09:46:26;;;;;;;12.33;2.07;;;17.50;69.40;;;;;;5077351;27;45925;-73
2023/01/14 09:48:54;;;;;;;11.17;1.77;;;17.50;69.60;;;;;;5085746;27;43965;-73
2023/01/14 09:51:49;;;;;;;10.37;2.07;;;17.40;69.50;;;;;;5085680;27;43532;-73
2023/01/14 09:54:20;;;;;;;4.57;1.93;;;17.40;69.50;;;;;;5084940;27;43473;-71
2023/01/14 09:56:51;;;;;;;3.50;1.70;;;17.40;69.70;;;;;;5083362;27;43843;-71
2023/01/14 09:59:24;;;;;;;5.90;1.73;;;17.40;69.80;;;;;;5084546;27;43644;-73
2023/01/14 10:01:55;;;;;;;3.00;2.33;;;17.40;69.70;;;;;;5084283;27;44299;-71
2023/01/14 10:04:49;;;;;;;5.60;2.27;;;17.40;69.80;;;;;;5084078;27;43413;-72
2023/01/14 10:07:17;;;;;;;1.70;1.60;;;17.40;69.50;;;;;;5084756;27;43935;-72
2023/01/14 10:09:47;;;;;;;9.97;1.77;;;17.40;69.70;;;;;;5077619;27;43514;-71
2023/01/14 10:12:17;;;;;;;7.33;2.40;;;17.40;69.80;;;;;;5089065;27;43427;-71
2023/01/14 10:14:48;;;;;;;3.40;1.73;;;17.40;69.70;;;;;;5077397;27;44180;-71
2023/01/14 10:17:20;;;;;;;1.57;1.47;;;17.40;69.80;;;;;;5088585;27;44074;-72
2023/01/14 10:19:49;;;;;;;1.73;1.63;;;17.40;69.70;;;;;;5075563;27;45227;-73
2023/01/14 10:22:21;;;;;;;3.17;2.03;;;17.40;69.50;;;;;;5086544;27;43557;-71
2023/01/14 10:24:49;;;;;;;2.10;1.53;;;17.50;69.10;;;;;;5087111;27;43451;-73
2023/01/14 10:27:19;;;;;;;3.53;1.63;;;17.60;68.60;;;;;;5087343;27;43671;-72
2023/01/14 10:29:47;;;;;;;2.07;1.43;;;17.70;68.30;;;;;;5084247;27;45263;-71
2023/01/14 10:32:17;;;;;;;2.83;1.80;;;17.70;68.50;;;;;;5086093;27;44229;-70
2023/01/14 10:34:46;;;;;;;2.10;1.70;;;17.60;68.60;;;;;;5087835;27;43641;-71
2023/01/14 10:37:14;;;;;;;3.43;1.70;;;17.60;68.40;;;;;;5076680;27;45379;-70
2023/01/14 10:39:45;;;;;;;1.50;1.40;;;17.60;68.60;;;;;;5087610;27;44033;-72
2023/01/14 10:42:13;;;;;;;2.20;1.63;;;17.60;68.80;;;;;;5087449;27;43467;-70
2023/01/14 10:44:43;;;;;;;2.97;1.90;;;17.50;69.10;;;;;;5088460;27;44048;-71
2023/01/14 10:47:13;;;;;;;2.27;2.07;;;17.50;69.00;;;;;;5078959;27;46242;-71
2023/01/14 10:49:50;;;;;;;2.20;2.00;;;17.50;69.20;;;;;;5086251;27;43494;-71
2023/01/14 10:52:23;;;;;;;4.77;2.30;;;17.50;69.10;;;;;;5086689;27;44706;-70
2023/01/14 10:54:58;;;;;;;9.33;5.30;;;17.50;70.00;;;;;;5086966;27;43971;-72
2023/01/14 10:57:26;;;;;;;10.23;5.43;;;17.50;69.50;;;;;;5085463;27;43898;-70
2023/01/14 10:59:55;;;;;;;8.30;4.67;;;17.40;69.30;;;;;;5086572;27;44031;-72
2023/01/14 11:02:33;;;;;;;20.13;10.30;;;17.40;69.30;;;;;;5086525;27;44152;-71
2023/01/14 11:05:04;;;;;;;26.43;9.33;;;17.40;69.50;;;;;;5075696;27;43466;-72
2023/01/14 11:07:33;;;;;;;23.30;9.97;;;17.40;69.30;;;;;;5076175;27;45964;-71
2023/01/14 11:10:02;;;;;;;25.13;12.50;;;17.40;69.30;;;;;;5086014;27;43602;-71
2023/01/14 11:12:31;;;;;;;28.03;13.60;;;17.40;69.50;;;;;;5085900;27;43452;-71
2023/01/14 11:14:59;;;;;;;26.00;12.77;;;17.50;69.60;;;;;;5087889;27;43521;-71
2023/01/14 11:17:28;;;;;;;31.67;13.37;;;17.40;69.60;;;;;;5072326;27;46162;-72
2023/01/14 11:20:23;;;;;;;30.20;13.37;;;17.40;69.60;;;;;;5086317;27;43575;-72
2023/01/14 11:22:58;;;;;;;33.20;14.00;;;17.40;69.50;;;;;;5086573;27;43483;-71
2023/01/14 11:25:26;;;;;;;29.30;13.33;;;17.50;69.20;;;;;;5086779;27;43484;-71
2023/01/14 11:27:54;;;;;;;28.20;13.23;;;17.60;68.80;;;;;;5084557;27;43861;-71
2023/01/14 11:30:23;;;;;;;30.57;12.70;;;17.70;68.50;;;;;;5086746;27;43451;-71
2023/01/14 11:32:52;;;;;;;30.30;16.03;;;17.70;68.80;;;;;;5086846;27;43530;-72
2023/01/14 11:35:23;;;;;;;36.70;17.27;;;17.70;68.80;;;;;;5086247;27;43434;-72
2023/01/14 11:37:53;;;;;;;38.13;17.33;;;17.60;68.60;;;;;;5073525;27;46022;-72
2023/01/14 11:40:22;;;;;;;35.83;15.20;;;17.60;68.60;;;;;;5086964;27;44437;-72
2023/01/14 11:42:51;;;;;;;28.23;14.03;;;17.60;68.90;;;;;;5076870;27;44044;-72
2023/01/14 11:45:21;;;;;;;24.07;13.27;;;17.60;69.10;;;;;;5086918;27;44634;-71
2023/01/14 11:47:49;;;;;;;28.17;13.80;;;17.60;69.10;;;;;;5076497;27;45770;-71
2023/01/14 11:50:21;;;;;;;26.10;13.83;;;17.50;69.10;;;;;;5086601;27;43453;-71
2023/01/14 11:52:59;;;;;;;24.53;12.63;;;17.50;69.10;;;;;;5086639;27;44066;-71
2023/01/14 11:55:27;;;;;;;22.50;11.60;;;17.50;69.00;;;;;;5076801;28;43598;-73
2023/01/14 11:57:56;;;;;;;23.20;11.97;;;17.50;69.30;;;;;;5087072;27;43632;-71
2023/01/14 12:00:33;;;;;;;26.07;12.93;;;17.50;69.30;;;;;;5086447;27;44045;-72
2023/01/14 12:03:02;;;;;;;22.27;11.77;;;17.50;69.30;;;;;;5073400;28;44126;-71
2023/01/14 12:05:31;;;;;;;22.73;11.70;;;17.50;69.30;;;;;;5085461;27;44011;-71
2023/01/14 12:08:01;;;;;;;26.33;12.37;;;17.50;69.30;;;;;;5083775;27;43936;-71
2023/01/14 12:10:30;;;;;;;21.20;11.90;;;17.50;69.10;;;;;;5085883;27;43481;-71
2023/01/14 12:18:44;;;;;;;25.83;13.50;;;17.60;69.00;;;;;;5084565;27;45562;-70
2023/01/14 12:21:13;;;;;;;25.30;12.23;;;17.60;69.10;;;;;;5085431;27;44018;-72
2023/01/14 12:23:43;;;;;;;24.63;12.50;;;17.60;69.00;;;;;;5074643;27;44129;-70
2023/01/14 12:26:17;;;;;;;21.57;11.17;;;17.60;69.00;;;;;;5086439;27;43676;-72
2023/01/14 12:28:48;;;;;;;19.87;11.20;;;17.60;69.10;;;;;;5086074;27;43899;-71
2023/01/14 12:31:20;;;;;;;19.03;10.83;;;17.60;69.10;;;;;;5070399;27;45493;-70
2023/01/14 12:33:48;;;;;;;19.37;10.30;;;17.50;69.00;;;;;;5086367;27;44026;-72
2023/01/14 12:36:19;;;;;;;18.70;10.80;;;17.50;69.00;;;;;;5085417;27;43513;-72
2023/01/14 12:47:14;;;;;;;16.90;9.27;;;17.50;69.50;;;;;;5085794;27;43568;-71
2023/01/14 12:49:43;;;;;;;16.23;9.53;;;17.40;69.50;;;;;;5076942;28;46068;-70
2023/01/14 12:52:13;;;;;;;15.73;9.00;;;17.40;69.60;;;;;;5075869;28;45382;-72
2023/01/14 12:54:41;;;;;;;15.90;9.40;;;17.40;69.40;;;;;;5085423;27;43787;-72
2023/01/14 12:57:09;;;;;;;15.93;8.90;;;17.50;69.20;;;;;;5086559;27;43485;-71
2023/01/14 12:59:37;;;;;;;14.57;8.27;;;17.60;68.80;;;;;;5084176;27;43603;-71
2023/01/14 13:02:07;;;;;;;16.73;8.83;;;17.60;68.70;;;;;;5085710;27;43437;-71
2023/01/14 13:04:38;;;;;;;11.80;7.90;;;17.60;68.90;;;;;;5084233;27;43458;-71
2023/01/14 13:07:06;;;;;;;14.90;8.47;;;17.60;69.10;;;;;;5086833;27;44069;-71
2023/01/14 13:09:40;;;;;;;13.13;8.17;;;17.60;69.00;;;;;;5085447;27;43678;-71
2023/01/14 13:12:21;;;;;;;13.90;7.50;;;17.60;69.00;;;;;;5085051;27;44100;-72
2023/01/14 13:14:53;;;;;;;12.37;7.90;;;17.60;69.30;;;;;;5086506;27;43470;-72
2023/01/14 13:17:25;;;;;;;11.10;7.23;;;17.60;69.50;;;;;;5085295;27;43516;-72
2023/01/14 13:19:53;;;;;;;9.87;7.10;;;17.50;69.60;;;;;;5084260;27;43938;-72
2023/01/14 13:22:39;;;;;;;9.53;6.67;;;17.50;69.70;;;;;;5084572;27;43466;-71
2023/01/14 13:25:34;;;;;;;9.63;6.33;;;17.50;69.50;;;;;;5084815;27;43538;-72
2023/01/14 13:28:04;;;;;;;8.17;6.50;;;17.50;69.70;;;;;;5084091;27;43624;-72
2023/01/14 13:30:42;;;;;;;9.90;6.67;;;17.50;69.80;;;;;;5083207;27;43859;-71
2023/01/14 13:33:24;;;;;;;8.97;6.20;;;17.50;69.80;;;;;;5085212;27;43626;-71
2023/01/14 13:36:12;;;;;;;8.60;5.97;;;17.50;69.80;;;;;;5084204;27;43466;-70
2023/01/14 13:38:42;;;;;;;9.60;6.07;;;17.40;69.60;;;;;;5083245;27;43450;-72
2023/01/14 13:41:12;;;;;;;9.70;6.20;;;17.40;69.60;;;;;;5083433;27;43769;-72
2023/01/14 13:43:46;;;;;;;8.53;6.13;;;17.40;69.80;;;;;;5079014;27;44577;-71